sensor_id;sensor_type;location;lat;lon;timestamp;pressure;altitude;pressure_sealevel;temperature;humidity
163;BME280;3946;48.958;8.284;2023-11-22T00:00:54;100945.78;;;7.46;100.00
163;BME280;3946;48.958;8.284;2023-11-22T00:03:39;100958.91;;;7.40;100.00
163;BME280;3946;48.958;8.284;2023-11-22T00:06:24;100976.25;;;7.36;100.00
163;BME280;3946;48.958;8.284;2023-11-22T00:09:11;100960.38;;;7.25;100.00
163;BME280;3946;48.958;8.284;2023-11-22T00:11:56;100953.78;;;7.18;100.00
163;BME280;3946;48.958;8.284;2023-11-22T00:14:43;100959.06;;;7.15;100.00
163;BME280;3946;48.958;8.284;2023-11-22T00:17:29;100968.50;;;7.15;100.00
163;BME280;3946;48.958;8.284;2023-11-22T00:20:14;100961.00;;;7.10;100.00
163;BME280;3946;48.958;8.284;2023-11-22T00:23:01;100970.56;;;7.07;100.00
163;BME280;3946;48.958;8.284;2023-11-22T00:25:47;100970.75;;;7.02;100.00
163;BME280;3946;48.958;8.284;2023-11-22T00:28:32;100976.78;;;7.01;100.00
163;BME280;3946;48.958;8.284;2023-11-22T00:31:17;100988.38;;;6.91;100.00
163;BME280;3946;48.958;8.284;2023-11-22T00:34:04;101000.56;;;6.86;100.00
163;BME280;3946;48.958;8.284;2023-11-22T00:36:49;100999.41;;;6.71;100.00
163;BME280;3946;48.958;8.284;2023-11-22T00:39:35;101004.81;;;6.65;100.00
163;BME280;3946;48.958;8.284;2023-11-22T00:42:21;101004.19;;;6.58;100.00
163;BME280;3946;48.958;8.284;2023-11-22T00:45:06;101013.97;;;6.49;100.00
163;BME280;3946;48.958;8.284;2023-11-22T00:47:51;101016.47;;;6.50;100.00
163;BME280;3946;48.958;8.284;2023-11-22T00:50:38;101017.66;;;6.42;100.00
163;BME280;3946;48.958;8.284;2023-11-22T00:53:23;101030.47;;;6.43;100.00
163;BME280;3946;48.958;8.284;2023-11-22T00:56:08;101029.75;;;6.40;100.00
163;BME280;3946;48.958;8.284;2023-11-22T00:58:53;101037.94;;;6.26;100.00
163;BME280;3946;48.958;8.284;2023-11-22T01:01:38;101044.09;;;6.22;100.00
163;BME280;3946;48.958;8.284;2023-11-22T01:04:23;101045.34;;;6.10;100.00
163;BME280;3946;48.958;8.284;2023-11-22T01:07:10;101043.03;;;6.03;100.00
163;BME280;3946;48.958;8.284;2023-11-22T01:09:55;101051.97;;;5.92;100.00
163;BME280;3946;48.958;8.284;2023-11-22T01:12:40;101057.53;;;5.79;100.00
163;BME280;3946;48.958;8.284;2023-11-22T01:15:25;101069.25;;;5.61;100.00
163;BME280;3946;48.958;8.284;2023-11-22T01:18:10;101070.44;;;5.51;100.00
163;BME280;3946;48.958;8.284;2023-11-22T01:20:55;101062.00;;;5.46;100.00
163;BME280;3946;48.958;8.284;2023-11-22T01:23:42;101073.13;;;5.46;100.00
163;BME280;3946;48.958;8.284;2023-11-22T01:26:29;101070.69;;;5.42;100.00
163;BME280;3946;48.958;8.284;2023-11-22T01:29:14;101064.84;;;5.37;100.00
163;BME280;3946;48.958;8.284;2023-11-22T01:31:59;101070.19;;;5.31;100.00
163;BME280;3946;48.958;8.284;2023-11-22T01:34:44;101074.50;;;5.30;100.00
163;BME280;3946;48.958;8.284;2023-11-22T01:37:29;101083.75;;;5.36;100.00
163;BME280;3946;48.958;8.284;2023-11-22T01:40:15;101080.38;;;5.34;100.00
163;BME280;3946;48.958;8.284;2023-11-22T01:43:00;101089.16;;;5.26;100.00
163;BME280;3946;48.958;8.284;2023-11-22T01:45:46;101088.22;;;5.29;100.00
163;BME280;3946;48.958;8.284;2023-11-22T01:48:31;101088.13;;;5.32;100.00
163;BME280;3946;48.958;8.284;2023-11-22T01:51:17;101097.41;;;5.36;100.00
163;BME280;3946;48.958;8.284;2023-11-22T01:54:02;101097.38;;;5.38;100.00
163;BME280;3946;48.958;8.284;2023-11-22T01:56:48;101102.66;;;5.33;100.00
163;BME280;3946;48.958;8.284;2023-11-22T01:59:34;101115.34;;;5.38;100.00
163;BME280;3946;48.958;8.284;2023-11-22T02:02:20;101122.34;;;5.34;100.00
163;BME280;3946;48.958;8.284;2023-11-22T02:05:05;101125.78;;;5.33;100.00
163;BME280;3946;48.958;8.284;2023-11-22T02:07:50;101125.81;;;5.32;100.00
163;BME280;3946;48.958;8.284;2023-11-22T02:10:36;101135.94;;;5.36;100.00
163;BME280;3946;48.958;8.284;2023-11-22T02:13:22;101137.00;;;5.31;100.00
163;BME280;3946;48.958;8.284;2023-11-22T02:16:07;101137.88;;;5.30;100.00
163;BME280;3946;48.958;8.284;2023-11-22T02:18:52;101141.31;;;5.28;100.00
163;BME280;3946;48.958;8.284;2023-11-22T02:21:37;101148.09;;;5.31;100.00
163;BME280;3946;48.958;8.284;2023-11-22T02:24:23;101150.84;;;5.25;100.00
163;BME280;3946;48.958;8.284;2023-11-22T02:27:08;101151.59;;;5.28;100.00
163;BME280;3946;48.958;8.284;2023-11-22T02:29:53;101159.34;;;5.27;100.00
163;BME280;3946;48.958;8.284;2023-11-22T02:32:38;101170.38;;;5.31;100.00
163;BME280;3946;48.958;8.284;2023-11-22T02:35:23;101169.53;;;5.30;100.00
163;BME280;3946;48.958;8.284;2023-11-22T02:38:10;101168.91;;;5.22;100.00
163;BME280;3946;48.958;8.284;2023-11-22T02:40:57;101180.06;;;5.21;100.00
163;BME280;3946;48.958;8.284;2023-11-22T02:43:42;101180.88;;;5.23;100.00
163;BME280;3946;48.958;8.284;2023-11-22T02:46:27;101188.66;;;5.20;100.00
163;BME280;3946;48.958;8.284;2023-11-22T02:49:12;101194.56;;;5.23;100.00
163;BME280;3946;48.958;8.284;2023-11-22T02:51:57;101198.06;;;5.21;100.00
163;BME280;3946;48.958;8.284;2023-11-22T02:54:43;101204.78;;;5.25;100.00
163;BME280;3946;48.958;8.284;2023-11-22T02:57:30;101204.00;;;5.23;100.00
163;BME280;3946;48.958;8.284;2023-11-22T03:00:16;101204.03;;;5.21;100.00
163;BME280;3946;48.958;8.284;2023-11-22T03:03:02;101210.13;;;5.19;100.00
163;BME280;3946;48.958;8.284;2023-11-22T03:05:52;101210.84;;;5.22;100.00
163;BME280;3946;48.958;8.284;2023-11-22T03:08:37;101212.50;;;5.25;100.00
163;BME280;3946;48.958;8.284;2023-11-22T03:11:22;101213.47;;;5.21;100.00
163;BME280;3946;48.958;8.284;2023-11-22T03:14:08;101215.06;;;5.25;100.00
163;BME280;3946;48.958;8.284;2023-11-22T03:16:53;101209.88;;;5.26;100.00
163;BME280;3946;48.958;8.284;2023-11-22T03:19:38;101205.59;;;5.27;100.00
163;BME280;3946;48.958;8.284;2023-11-22T03:22:23;101204.91;;;5.20;100.00
163;BME280;3946;48.958;8.284;2023-11-22T03:25:08;101208.31;;;5.21;100.00
163;BME280;3946;48.958;8.284;2023-11-22T03:27:53;101205.75;;;5.21;100.00
163;BME280;3946;48.958;8.284;2023-11-22T03:30:39;101203.91;;;5.26;100.00
163;BME280;3946;48.958;8.284;2023-11-22T03:33:25;101215.78;;;5.30;100.00
163;BME280;3946;48.958;8.284;2023-11-22T03:36:10;101224.53;;;5.23;100.00
163;BME280;3946;48.958;8.284;2023-11-22T03:38:55;101234.00;;;5.21;100.00
163;BME280;3946;48.958;8.284;2023-11-22T03:41:40;101246.78;;;5.24;100.00
163;BME280;3946;48.958;8.284;2023-11-22T03:44:26;101242.72;;;5.17;100.00
163;BME280;3946;48.958;8.284;2023-11-22T03:47:14;101252.97;;;5.17;100.00
163;BME280;3946;48.958;8.284;2023-11-22T03:49:59;101245.38;;;5.12;100.00
163;BME280;3946;48.958;8.284;2023-11-22T03:52:44;101247.53;;;4.97;100.00
163;BME280;3946;48.958;8.284;2023-11-22T03:55:30;101239.91;;;4.93;100.00
163;BME280;3946;48.958;8.284;2023-11-22T03:58:15;101252.00;;;4.88;100.00
163;BME280;3946;48.958;8.284;2023-11-22T04:01:02;101255.56;;;4.84;100.00
163;BME280;3946;48.958;8.284;2023-11-22T04:03:48;101258.19;;;4.81;100.00
163;BME280;3946;48.958;8.284;2023-11-22T04:06:33;101265.25;;;4.72;100.00
163;BME280;3946;48.958;8.284;2023-11-22T04:09:18;101257.78;;;4.64;100.00
163;BME280;3946;48.958;8.284;2023-11-22T04:12:04;101264.03;;;4.54;100.00
163;BME280;3946;48.958;8.284;2023-11-22T04:14:49;101271.19;;;4.40;100.00
163;BME280;3946;48.958;8.284;2023-11-22T04:17:35;101276.59;;;4.28;100.00
163;BME280;3946;48.958;8.284;2023-11-22T04:20:22;101273.28;;;4.22;100.00
163;BME280;3946;48.958;8.284;2023-11-22T04:23:07;101275.22;;;4.13;100.00
163;BME280;3946;48.958;8.284;2023-11-22T04:25:54;101296.91;;;3.98;100.00
163;BME280;3946;48.958;8.284;2023-11-22T04:28:39;101285.03;;;3.94;100.00
163;BME280;3946;48.958;8.284;2023-11-22T04:31:24;101302.19;;;3.91;100.00
163;BME280;3946;48.958;8.284;2023-11-22T04:34:09;101299.84;;;3.81;100.00
163;BME280;3946;48.958;8.284;2023-11-22T04:36:55;101299.94;;;3.75;100.00
163;BME280;3946;48.958;8.284;2023-11-22T04:39:40;101307.72;;;3.72;100.00
163;BME280;3946;48.958;8.284;2023-11-22T04:42:29;101323.16;;;3.69;100.00
163;BME280;3946;48.958;8.284;2023-11-22T04:45:14;101332.56;;;3.69;100.00
163;BME280;3946;48.958;8.284;2023-11-22T04:47:59;101342.75;;;3.72;100.00
163;BME280;3946;48.958;8.284;2023-11-22T04:50:44;101344.56;;;3.67;100.00
163;BME280;3946;48.958;8.284;2023-11-22T04:53:30;101353.16;;;3.63;100.00
163;BME280;3946;48.958;8.284;2023-11-22T04:56:16;101355.78;;;3.60;100.00
163;BME280;3946;48.958;8.284;2023-11-22T04:59:01;101347.44;;;3.50;100.00
163;BME280;3946;48.958;8.284;2023-11-22T05:01:47;101336.56;;;3.37;100.00
163;BME280;3946;48.958;8.284;2023-11-22T05:04:32;101351.91;;;3.40;100.00
163;BME280;3946;48.958;8.284;2023-11-22T05:07:17;101352.94;;;3.29;100.00
163;BME280;3946;48.958;8.284;2023-11-22T05:10:04;101355.53;;;3.26;100.00
163;BME280;3946;48.958;8.284;2023-11-22T05:12:52;101370.00;;;3.28;100.00
163;BME280;3946;48.958;8.284;2023-11-22T05:15:37;101377.72;;;3.27;100.00
163;BME280;3946;48.958;8.284;2023-11-22T05:18:22;101355.16;;;2.99;100.00
163;BME280;3946;48.958;8.284;2023-11-22T05:21:07;101365.94;;;3.18;100.00
163;BME280;3946;48.958;8.284;2023-11-22T05:23:52;101371.97;;;3.14;100.00
163;BME280;3946;48.958;8.284;2023-11-22T05:26:39;101379.63;;;3.15;100.00
163;BME280;3946;48.958;8.284;2023-11-22T05:29:24;101378.88;;;3.09;100.00
163;BME280;3946;48.958;8.284;2023-11-22T05:32:09;101370.28;;;3.11;100.00
163;BME280;3946;48.958;8.284;2023-11-22T05:34:54;101388.28;;;3.08;100.00
163;BME280;3946;48.958;8.284;2023-11-22T05:37:39;101385.03;;;2.99;100.00
163;BME280;3946;48.958;8.284;2023-11-22T05:40:24;101394.38;;;3.00;100.00
163;BME280;3946;48.958;8.284;2023-11-22T05:43:10;101402.97;;;2.97;100.00
163;BME280;3946;48.958;8.284;2023-11-22T05:45:55;101398.72;;;2.95;100.00
163;BME280;3946;48.958;8.284;2023-11-22T05:48:40;101402.22;;;2.92;100.00
163;BME280;3946;48.958;8.284;2023-11-22T05:51:30;101396.25;;;2.90;100.00
163;BME280;3946;48.958;8.284;2023-11-22T05:54:14;101404.00;;;2.86;100.00
163;BME280;3946;48.958;8.284;2023-11-22T05:57:00;101407.28;;;2.94;100.00
163;BME280;3946;48.958;8.284;2023-11-22T05:59:46;101419.38;;;2.83;100.00
163;BME280;3946;48.958;8.284;2023-11-22T06:02:31;101421.16;;;2.77;100.00
163;BME280;3946;48.958;8.284;2023-11-22T06:05:16;101428.81;;;2.80;100.00
163;BME280;3946;48.958;8.284;2023-11-22T06:08:01;101432.25;;;2.76;100.00
163;BME280;3946;48.958;8.284;2023-11-22T06:10:46;101433.94;;;2.77;100.00
163;BME280;3946;48.958;8.284;2023-11-22T06:13:31;101439.00;;;2.84;100.00
163;BME280;3946;48.958;8.284;2023-11-22T06:16:17;101454.34;;;2.84;100.00
163;BME280;3946;48.958;8.284;2023-11-22T06:19:02;101446.88;;;2.70;100.00
163;BME280;3946;48.958;8.284;2023-11-22T06:21:47;101457.09;;;2.71;100.00
163;BME280;3946;48.958;8.284;2023-11-22T06:24:32;101455.38;;;2.72;100.00
163;BME280;3946;48.958;8.284;2023-11-22T06:27:19;101459.59;;;2.76;100.00
163;BME280;3946;48.958;8.284;2023-11-22T06:30:05;101464.72;;;2.74;100.00
163;BME280;3946;48.958;8.284;2023-11-22T06:32:52;101462.19;;;2.73;100.00
163;BME280;3946;48.958;8.284;2023-11-22T06:35:38;101464.63;;;2.79;100.00
163;BME280;3946;48.958;8.284;2023-11-22T06:38:22;101472.47;;;2.70;100.00
163;BME280;3946;48.958;8.284;2023-11-22T06:41:07;101478.41;;;2.70;100.00
163;BME280;3946;48.958;8.284;2023-11-22T06:43:52;101479.28;;;2.69;100.00
163;BME280;3946;48.958;8.284;2023-11-22T06:46:37;101481.00;;;2.67;100.00
163;BME280;3946;48.958;8.284;2023-11-22T06:49:23;101487.88;;;2.62;100.00
163;BME280;3946;48.958;8.284;2023-11-22T06:52:08;101494.69;;;2.63;100.00
163;BME280;3946;48.958;8.284;2023-11-22T06:54:53;101500.69;;;2.61;100.00
163;BME280;3946;48.958;8.284;2023-11-22T06:57:38;101498.19;;;2.59;100.00
163;BME280;3946;48.958;8.284;2023-11-22T07:00:23;101509.28;;;2.58;100.00
163;BME280;3946;48.958;8.284;2023-11-22T07:03:11;101509.28;;;2.60;100.00
163;BME280;3946;48.958;8.284;2023-11-22T07:05:57;101516.97;;;2.57;99.84
163;BME280;3946;48.958;8.284;2023-11-22T07:08:43;101526.38;;;2.55;98.59
163;BME280;3946;48.958;8.284;2023-11-22T07:11:28;101528.97;;;2.50;98.65
163;BME280;3946;48.958;8.284;2023-11-22T07:14:15;101526.41;;;2.50;97.42
163;BME280;3946;48.958;8.284;2023-11-22T07:17:00;101521.41;;;2.42;97.34
163;BME280;3946;48.958;8.284;2023-11-22T07:19:45;101528.25;;;2.40;97.11
163;BME280;3946;48.958;8.284;2023-11-22T07:22:32;101533.38;;;2.39;96.74
163;BME280;3946;48.958;8.284;2023-11-22T07:25:17;101522.28;;;2.41;96.58
163;BME280;3946;48.958;8.284;2023-11-22T07:28:03;101534.09;;;2.50;95.99
163;BME280;3946;48.958;8.284;2023-11-22T07:30:48;101542.63;;;2.49;96.11
163;BME280;3946;48.958;8.284;2023-11-22T07:33:33;101540.94;;;2.48;96.09
163;BME280;3946;48.958;8.284;2023-11-22T07:36:18;101554.56;;;2.49;96.15
163;BME280;3946;48.958;8.284;2023-11-22T07:39:05;101551.16;;;2.50;95.80
163;BME280;3946;48.958;8.284;2023-11-22T07:41:50;101554.56;;;2.49;95.80
163;BME280;3946;48.958;8.284;2023-11-22T07:44:37;101557.06;;;2.56;95.39
163;BME280;3946;48.958;8.284;2023-11-22T07:47:22;101551.16;;;2.50;95.49
163;BME280;3946;48.958;8.284;2023-11-22T07:50:08;101556.97;;;2.61;95.12
163;BME280;3946;48.958;8.284;2023-11-22T07:52:55;101559.50;;;2.64;94.71
163;BME280;3946;48.958;8.284;2023-11-22T07:55:42;101555.25;;;2.61;93.93
163;BME280;3946;48.958;8.284;2023-11-22T07:58:27;101564.63;;;2.64;93.99
163;BME280;3946;48.958;8.284;2023-11-22T08:01:11;101559.44;;;2.70;93.58
163;BME280;3946;48.958;8.284;2023-11-22T08:03:57;101562.84;;;2.70;93.79
163;BME280;3946;48.958;8.284;2023-11-22T08:06:42;101555.97;;;2.75;93.52
163;BME280;3946;48.958;8.284;2023-11-22T08:09:27;101567.84;;;2.78;92.63
163;BME280;3946;48.958;8.284;2023-11-22T08:12:17;101573.00;;;2.76;92.84
163;BME280;3946;48.958;8.284;2023-11-22T08:15:03;101566.94;;;2.85;93.21
163;BME280;3946;48.958;8.284;2023-11-22T08:17:48;101568.69;;;2.80;92.28
163;BME280;3946;48.958;8.284;2023-11-22T08:20:33;101567.84;;;2.79;90.98
163;BME280;3946;48.958;8.284;2023-11-22T08:23:18;101575.41;;;2.92;92.13
163;BME280;3946;48.958;8.284;2023-11-22T08:26:03;101571.88;;;2.99;91.54
163;BME280;3946;48.958;8.284;2023-11-22T08:28:50;101557.34;;;3.01;88.90
163;BME280;3946;48.958;8.284;2023-11-22T08:31:35;101557.34;;;3.01;89.76
163;BME280;3946;48.958;8.284;2023-11-22T08:34:20;101558.88;;;3.12;90.28
163;BME280;3946;48.958;8.284;2023-11-22T08:37:06;101552.25;;;2.99;86.66
163;BME280;3946;48.958;8.284;2023-11-22T08:39:52;101558.13;;;3.07;85.77
163;BME280;3946;48.958;8.284;2023-11-22T08:42:37;101561.53;;;3.08;85.50
163;BME280;3946;48.958;8.284;2023-11-22T08:45:25;101553.75;;;3.12;84.25
163;BME280;3946;48.958;8.284;2023-11-22T08:48:12;101556.28;;;3.15;84.74
163;BME280;3946;48.958;8.284;2023-11-22T08:50:58;101551.19;;;3.14;83.78
163;BME280;3946;48.958;8.284;2023-11-22T08:53:44;101557.13;;;3.16;83.83
163;BME280;3946;48.958;8.284;2023-11-22T08:56:29;101560.50;;;3.20;83.85
163;BME280;3946;48.958;8.284;2023-11-22T08:59:14;101572.31;;;3.28;83.84
163;BME280;3946;48.958;8.284;2023-11-22T09:02:01;101578.34;;;3.26;83.99
163;BME280;3946;48.958;8.284;2023-11-22T09:04:47;101574.88;;;3.28;84.01
163;BME280;3946;48.958;8.284;2023-11-22T09:07:31;101564.69;;;3.25;83.67
163;BME280;3946;48.958;8.284;2023-11-22T09:10:17;101563.66;;;3.40;83.80
163;BME280;3946;48.958;8.284;2023-11-22T09:13:02;101570.31;;;3.50;82.53
163;BME280;3946;48.958;8.284;2023-11-22T09:15:48;101567.56;;;3.61;82.78
163;BME280;3946;48.958;8.284;2023-11-22T09:18:36;101575.13;;;3.70;82.85
163;BME280;3946;48.958;8.284;2023-11-22T09:21:21;101575.88;;;3.75;83.25
163;BME280;3946;48.958;8.284;2023-11-22T09:24:06;101572.75;;;3.58;82.81
163;BME280;3946;48.958;8.284;2023-11-22T09:26:52;101585.38;;;3.70;83.12
163;BME280;3946;48.958;8.284;2023-11-22T09:29:36;101589.56;;;3.74;83.06
163;BME280;3946;48.958;8.284;2023-11-22T09:32:21;101593.56;;;3.92;83.84
163;BME280;3946;48.958;8.284;2023-11-22T09:35:09;101599.66;;;3.86;83.08
163;BME280;3946;48.958;8.284;2023-11-22T09:37:54;101607.47;;;3.77;83.25
163;BME280;3946;48.958;8.284;2023-11-22T09:40:40;101623.47;;;3.91;84.22
163;BME280;3946;48.958;8.284;2023-11-22T09:43:25;101626.47;;;3.64;84.60
163;BME280;3946;48.958;8.284;2023-11-22T09:46:13;101619.41;;;3.79;85.12
163;BME280;3946;48.958;8.284;2023-11-22T09:48:58;101609.88;;;3.89;85.52
163;BME280;3946;48.958;8.284;2023-11-22T09:51:45;101601.22;;;3.93;85.58
163;BME280;3946;48.958;8.284;2023-11-22T09:54:32;101590.28;;;3.85;85.11
163;BME280;3946;48.958;8.284;2023-11-22T09:57:19;101594.34;;;3.97;85.58
163;BME280;3946;48.958;8.284;2023-11-22T10:00:05;101587.31;;;4.06;84.67
163;BME280;3946;48.958;8.284;2023-11-22T10:02:52;101601.50;;;4.29;85.24
163;BME280;3946;48.958;8.284;2023-11-22T10:05:38;101607.97;;;4.48;84.10
163;BME280;3946;48.958;8.284;2023-11-22T10:08:25;101613.97;;;4.48;84.52
163;BME280;3946;48.958;8.284;2023-11-22T10:11:11;101597.66;;;4.51;84.18
163;BME280;3946;48.958;8.284;2023-11-22T10:13:57;101603.38;;;4.65;83.30
163;BME280;3946;48.958;8.284;2023-11-22T10:16:42;101605.41;;;4.49;83.65
163;BME280;3946;48.958;8.284;2023-11-22T10:19:33;101609.63;;;4.52;82.97
163;BME280;3946;48.958;8.284;2023-11-22T10:22:19;101616.28;;;4.62;82.69
163;BME280;3946;48.958;8.284;2023-11-22T10:25:05;101620.13;;;4.84;83.32
163;BME280;3946;48.958;8.284;2023-11-22T10:27:52;101621.03;;;4.82;83.72
163;BME280;3946;48.958;8.284;2023-11-22T10:30:38;101636.63;;;4.71;83.69
163;BME280;3946;48.958;8.284;2023-11-22T10:33:25;101626.50;;;4.64;83.39
163;BME280;3946;48.958;8.284;2023-11-22T10:36:10;101625.63;;;4.66;83.08
163;BME280;3946;48.958;8.284;2023-11-22T10:38:56;101627.59;;;4.52;82.78
163;BME280;3946;48.958;8.284;2023-11-22T10:41:42;101636.13;;;4.52;82.88
163;BME280;3946;48.958;8.284;2023-11-22T10:44:28;101639.66;;;4.47;82.72
163;BME280;3946;48.958;8.284;2023-11-22T10:47:13;101635.38;;;4.46;82.37
163;BME280;3946;48.958;8.284;2023-11-22T10:50:00;101643.09;;;4.44;83.01
163;BME280;3946;48.958;8.284;2023-11-22T10:52:46;101652.69;;;4.35;82.58
163;BME280;3946;48.958;8.284;2023-11-22T10:55:33;101662.84;;;4.41;82.52
163;BME280;3946;48.958;8.284;2023-11-22T10:58:22;101659.94;;;4.61;83.18
163;BME280;3946;48.958;8.284;2023-11-22T11:01:09;101659.91;;;4.62;81.94
163;BME280;3946;48.958;8.284;2023-11-22T11:03:55;101659.81;;;4.68;81.53
163;BME280;3946;48.958;8.284;2023-11-22T11:06:41;101660.72;;;4.64;80.59
163;BME280;3946;48.958;8.284;2023-11-22T11:09:27;101671.13;;;4.56;81.00
163;BME280;3946;48.958;8.284;2023-11-22T11:12:16;101667.41;;;4.71;80.83
163;BME280;3946;48.958;8.284;2023-11-22T11:15:03;101665.69;;;4.73;80.90
163;BME280;3946;48.958;8.284;2023-11-22T11:17:48;101662.25;;;4.73;80.27
163;BME280;3946;48.958;8.284;2023-11-22T11:20:43;101658.91;;;4.71;80.45
163;BME280;3946;48.958;8.284;2023-11-22T11:23:30;101670.13;;;4.65;79.71
163;BME280;3946;48.958;8.284;2023-11-22T11:26:15;101679.28;;;4.78;80.78
163;BME280;3946;48.958;8.284;2023-11-22T11:29:01;101685.56;;;5.08;81.52
163;BME280;3946;48.958;8.284;2023-11-22T11:31:49;101686.66;;;4.97;81.02
163;BME280;3946;48.958;8.284;2023-11-22T11:34:37;101683.34;;;5.33;80.38
163;BME280;3946;48.958;8.284;2023-11-22T11:37:24;101682.13;;;5.89;79.48
163;BME280;3946;48.958;8.284;2023-11-22T11:40:24;101673.59;;;5.86;79.23
163;BME280;3946;48.958;8.284;2023-11-22T11:43:09;101672.94;;;5.78;77.03
163;BME280;3946;48.958;8.284;2023-11-22T11:45:55;101684.56;;;5.55;78.65
163;BME280;3946;48.958;8.284;2023-11-22T11:48:43;101682.16;;;5.49;78.71
163;BME280;3946;48.958;8.284;2023-11-22T11:51:29;101676.03;;;5.15;78.64
163;BME280;3946;48.958;8.284;2023-11-22T11:54:13;101684.28;;;5.29;79.73
163;BME280;3946;48.958;8.284;2023-11-22T11:56:58;101693.78;;;5.25;79.97
163;BME280;3946;48.958;8.284;2023-11-22T11:59:44;101689.59;;;5.20;80.13
163;BME280;3946;48.958;8.284;2023-11-22T12:02:30;101691.88;;;4.90;79.06
163;BME280;3946;48.958;8.284;2023-11-22T12:05:16;101693.59;;;4.90;79.66
163;BME280;3946;48.958;8.284;2023-11-22T12:08:04;101707.88;;;4.58;79.12
163;BME280;3946;48.958;8.284;2023-11-22T12:10:49;101707.16;;;4.50;80.13
163;BME280;3946;48.958;8.284;2023-11-22T12:13:34;101713.16;;;4.51;80.27
163;BME280;3946;48.958;8.284;2023-11-22T12:16:22;101714.84;;;4.52;80.07
163;BME280;3946;48.958;8.284;2023-11-22T12:19:06;101727.47;;;4.63;80.40
163;BME280;3946;48.958;8.284;2023-11-22T12:21:53;101729.03;;;4.71;80.11
163;BME280;3946;48.958;8.284;2023-11-22T12:24:38;101717.03;;;4.73;80.43
163;BME280;3946;48.958;8.284;2023-11-22T12:27:23;101721.22;;;4.79;80.40
163;BME280;3946;48.958;8.284;2023-11-22T12:30:08;101720.75;;;4.55;79.38
163;BME280;3946;48.958;8.284;2023-11-22T12:32:55;101706.06;;;4.65;80.02
163;BME280;3946;48.958;8.284;2023-11-22T12:35:42;101710.91;;;4.80;79.55
163;BME280;3946;48.958;8.284;2023-11-22T12:38:29;101698.34;;;4.65;78.50
163;BME280;3946;48.958;8.284;2023-11-22T12:41:15;101708.59;;;4.67;78.41
163;BME280;3946;48.958;8.284;2023-11-22T12:44:02;101714.41;;;4.76;80.18
163;BME280;3946;48.958;8.284;2023-11-22T12:46:48;101713.53;;;4.77;79.36
163;BME280;3946;48.958;8.284;2023-11-22T12:49:43;101694.13;;;4.61;78.49
163;BME280;3946;48.958;8.284;2023-11-22T12:52:29;101682.94;;;4.67;78.67
163;BME280;3946;48.958;8.284;2023-11-22T12:55:17;101684.78;;;4.57;77.99
163;BME280;3946;48.958;8.284;2023-11-22T12:58:02;101674.59;;;4.54;78.11
163;BME280;3946;48.958;8.284;2023-11-22T13:00:48;101665.00;;;4.64;78.62
163;BME280;3946;48.958;8.284;2023-11-22T13:03:33;101679.78;;;4.51;78.36
163;BME280;3946;48.958;8.284;2023-11-22T13:06:20;101684.28;;;4.38;78.61
163;BME280;3946;48.958;8.284;2023-11-22T13:09:08;101681.75;;;4.35;78.42
163;BME280;3946;48.958;8.284;2023-11-22T13:11:59;101693.50;;;4.50;78.97
163;BME280;3946;48.958;8.284;2023-11-22T13:14:44;101683.03;;;4.59;78.95
163;BME280;3946;48.958;8.284;2023-11-22T13:17:29;101684.69;;;4.63;78.51
163;BME280;3946;48.958;8.284;2023-11-22T13:20:14;101678.78;;;4.58;78.00
163;BME280;3946;48.958;8.284;2023-11-22T13:22:59;101691.00;;;4.44;78.21
163;BME280;3946;48.958;8.284;2023-11-22T13:25:44;101692.03;;;4.35;78.57
163;BME280;3946;48.958;8.284;2023-11-22T13:28:31;101690.09;;;4.48;78.79
163;BME280;3946;48.958;8.284;2023-11-22T13:31:16;101702.28;;;4.35;78.40
163;BME280;3946;48.958;8.284;2023-11-22T13:34:01;101698.03;;;4.34;79.32
163;BME280;3946;48.958;8.284;2023-11-22T13:36:46;101708.06;;;4.48;79.36
163;BME280;3946;48.958;8.284;2023-11-22T13:39:31;101714.66;;;4.61;80.09
163;BME280;3946;48.958;8.284;2023-11-22T13:42:19;101693.34;;;4.57;79.09
163;BME280;3946;48.958;8.284;2023-11-22T13:45:06;101690.09;;;4.48;78.57
163;BME280;3946;48.958;8.284;2023-11-22T13:47:52;101689.75;;;4.68;79.80
163;BME280;3946;48.958;8.284;2023-11-22T13:50:40;101700.06;;;4.65;78.56
163;BME280;3946;48.958;8.284;2023-11-22T13:53:26;101702.94;;;4.46;78.58
163;BME280;3946;48.958;8.284;2023-11-22T13:56:17;101706.25;;;4.54;78.80
163;BME280;3946;48.958;8.284;2023-11-22T13:59:02;101711.59;;;4.41;78.04
163;BME280;3946;48.958;8.284;2023-11-22T14:01:48;101710.84;;;4.36;79.54
163;BME280;3946;48.958;8.284;2023-11-22T14:04:33;101693.78;;;4.32;78.89
163;BME280;3946;48.958;8.284;2023-11-22T14:07:19;101685.09;;;4.39;79.31
163;BME280;3946;48.958;8.284;2023-11-22T14:10:04;101675.31;;;4.61;79.01
163;BME280;3946;48.958;8.284;2023-11-22T14:12:50;101674.59;;;4.54;79.04
163;BME280;3946;48.958;8.284;2023-11-22T14:15:35;101670.97;;;4.66;78.87
163;BME280;3946;48.958;8.284;2023-11-22T14:18:22;101677.59;;;4.77;78.61
163;BME280;3946;48.958;8.284;2023-11-22T14:21:08;101685.34;;;4.74;77.95
163;BME280;3946;48.958;8.284;2023-11-22T14:23:54;101686.09;;;4.81;78.21
163;BME280;3946;48.958;8.284;2023-11-22T14:26:39;101678.72;;;4.63;78.41
163;BME280;3946;48.958;8.284;2023-11-22T14:29:24;101673.53;;;4.66;78.53
163;BME280;3946;48.958;8.284;2023-11-22T14:32:09;101683.78;;;4.67;78.40
163;BME280;3946;48.958;8.284;2023-11-22T14:34:55;101688.16;;;4.61;77.72
163;BME280;3946;48.958;8.284;2023-11-22T14:37:40;101703.59;;;4.57;78.44
163;BME280;3946;48.958;8.284;2023-11-22T14:40:26;101712.72;;;4.75;79.06
163;BME280;3946;48.958;8.284;2023-11-22T14:43:14;101718.97;;;4.61;78.65
163;BME280;3946;48.958;8.284;2023-11-22T14:45:59;101713.88;;;4.57;78.35
163;BME280;3946;48.958;8.284;2023-11-22T14:48:44;101701.13;;;4.54;78.73
163;BME280;3946;48.958;8.284;2023-11-22T14:51:32;101697.84;;;4.45;78.85
163;BME280;3946;48.958;8.284;2023-11-22T14:54:17;101702.09;;;4.47;78.58
163;BME280;3946;48.958;8.284;2023-11-22T14:57:02;101720.09;;;4.43;79.01
163;BME280;3946;48.958;8.284;2023-11-22T14:59:47;101709.16;;;4.33;79.20
163;BME280;3946;48.958;8.284;2023-11-22T15:02:33;101726.03;;;4.46;79.77
163;BME280;3946;48.958;8.284;2023-11-22T15:05:20;101720.94;;;4.45;80.39
163;BME280;3946;48.958;8.284;2023-11-22T15:08:07;101719.88;;;4.56;79.25